sensor_id;sensor_type;location;lat;lon;timestamp;temperature;humidity
53876;DHT22;39789;53.216;5.624;2022-12-29T00:01:25;9.20;99.90
53876;DHT22;39789;53.216;5.624;2022-12-29T00:03:51;9.20;99.90
53876;DHT22;39789;53.216;5.624;2022-12-29T00:06:20;9.20;99.90
53876;DHT22;39789;53.216;5.624;2022-12-29T00:08:46;9.20;99.90
53876;DHT22;39789;53.216;5.624;2022-12-29T00:11:20;9.20;99.90
53876;DHT22;39789;53.216;5.624;2022-12-29T00:13:46;9.20;99.90
53876;DHT22;39789;53.216;5.624;2022-12-29T00:16:31;9.20;99.90
53876;DHT22;39789;53.216;5.624;2022-12-29T00:18:57;9.20;99.90
53876;DHT22;39789;53.216;5.624;2022-12-29T00:21:23;9.30;99.90
53876;DHT22;39789;53.216;5.624;2022-12-29T00:24:17;9.30;99.90
53876;DHT22;39789;53.216;5.624;2022-12-29T00:29:51;9.30;99.90
53876;DHT22;39789;53.216;5.624;2022-12-29T00:32:35;9.30;99.90
53876;DHT22;39789;53.216;5.624;2022-12-29T00:35:37;9.30;99.90
53876;DHT22;39789;53.216;5.624;2022-12-29T00:38:05;9.30;99.90
53876;DHT22;39789;53.216;5.624;2022-12-29T00:40:55;9.30;99.90
53876;DHT22;39789;53.216;5.624;2022-12-29T00:43:39;9.30;99.90
53876;DHT22;39789;53.216;5.624;2022-12-29T00:46:23;9.40;99.90
53876;DHT22;39789;53.216;5.624;2022-12-29T00:48:48;9.30;99.90
53876;DHT22;39789;53.216;5.624;2022-12-29T00:51:35;9.30;99.90
53876;DHT22;39789;53.216;5.624;2022-12-29T00:54:01;9.30;99.90
53876;DHT22;39789;53.216;5.624;2022-12-29T00:56:26;9.30;99.90
53876;DHT22;39789;53.216;5.624;2022-12-29T00:58:53;9.40;99.90
53876;DHT22;39789;53.216;5.624;2022-12-29T01:01:19;9.40;99.90
53876;DHT22;39789;53.216;5.624;2022-12-29T01:03:44;9.40;99.90
53876;DHT22;39789;53.216;5.624;2022-12-29T01:06:11;9.40;99.90
53876;DHT22;39789;53.216;5.624;2022-12-29T01:08:38;9.40;99.90
53876;DHT22;39789;53.216;5.624;2022-12-29T01:11:10;9.40;99.90
53876;DHT22;39789;53.216;5.624;2022-12-29T01:13:36;9.50;99.90
53876;DHT22;39789;53.216;5.624;2022-12-29T01:16:04;9.50;99.90
53876;DHT22;39789;53.216;5.624;2022-12-29T01:18:30;9.50;99.90
53876;DHT22;39789;53.216;5.624;2022-12-29T01:21:04;9.50;99.90
53876;DHT22;39789;53.216;5.624;2022-12-29T01:23:30;9.50;99.90
53876;DHT22;39789;53.216;5.624;2022-12-29T01:26:09;9.50;99.90
53876;DHT22;39789;53.216;5.624;2022-12-29T01:28:35;9.50;99.90
53876;DHT22;39789;53.216;5.624;2022-12-29T01:31:01;9.50;99.90
53876;DHT22;39789;53.216;5.624;2022-12-29T01:33:27;9.50;99.90
53876;DHT22;39789;53.216;5.624;2022-12-29T01:35:52;9.50;99.90
53876;DHT22;39789;53.216;5.624;2022-12-29T01:38:18;9.50;99.90
53876;DHT22;39789;53.216;5.624;2022-12-29T01:40:45;9.50;99.90
53876;DHT22;39789;53.216;5.624;2022-12-29T01:43:13;9.50;99.90
53876;DHT22;39789;53.216;5.624;2022-12-29T01:45:45;9.50;99.90
53876;DHT22;39789;53.216;5.624;2022-12-29T01:48:16;10.90;99.90
53876;DHT22;39789;53.216;5.624;2022-12-29T01:50:49;9.50;99.90
53876;DHT22;39789;53.216;5.624;2022-12-29T01:53:20;9.50;99.90
53876;DHT22;39789;53.216;5.624;2022-12-29T01:55:50;9.60;99.90
53876;DHT22;39789;53.216;5.624;2022-12-29T01:58:20;9.60;99.90
53876;DHT22;39789;53.216;5.624;2022-12-29T02:00:46;9.60;99.90
53876;DHT22;39789;53.216;5.624;2022-12-29T02:03:12;9.60;99.90
53876;DHT22;39789;53.216;5.624;2022-12-29T02:09:19;9.60;99.90
53876;DHT22;39789;53.216;5.624;2022-12-29T02:11:45;9.50;99.90
53876;DHT22;39789;53.216;5.624;2022-12-29T02:14:14;9.50;99.90
53876;DHT22;39789;53.216;5.624;2022-12-29T02:17:01;9.50;99.90
53876;DHT22;39789;53.216;5.624;2022-12-29T02:19:52;9.50;99.90
53876;DHT22;39789;53.216;5.624;2022-12-29T02:25:46;9.50;99.90
53876;DHT22;39789;53.216;5.624;2022-12-29T02:37:03;9.40;99.90
53876;DHT22;39789;53.216;5.624;2022-12-29T02:42:33;9.30;99.90
53876;DHT22;39789;53.216;5.624;2022-12-29T02:45:07;9.20;99.90
53876;DHT22;39789;53.216;5.624;2022-12-29T02:47:59;9.20;99.90
53876;DHT22;39789;53.216;5.624;2022-12-29T02:50:44;9.20;99.90
53876;DHT22;39789;53.216;5.624;2022-12-29T02:53:16;9.20;99.90
53876;DHT22;39789;53.216;5.624;2022-12-29T02:56:03;9.20;99.90
53876;DHT22;39789;53.216;5.624;2022-12-29T02:58:29;9.30;99.90
53876;DHT22;39789;53.216;5.624;2022-12-29T03:01:17;9.30;99.90
53876;DHT22;39789;53.216;5.624;2022-12-29T03:06:59;9.30;99.90
53876;DHT22;39789;53.216;5.624;2022-12-29T03:09:54;9.30;99.90
53876;DHT22;39789;53.216;5.624;2022-12-29T03:12:34;9.30;99.90
53876;DHT22;39789;53.216;5.624;2022-12-29T03:15:23;9.30;99.90
53876;DHT22;39789;53.216;5.624;2022-12-29T03:18:15;9.20;99.90
53876;DHT22;39789;53.216;5.624;2022-12-29T03:20:55;9.20;99.90
53876;DHT22;39789;53.216;5.624;2022-12-29T03:23:24;9.20;99.90
53876;DHT22;39789;53.216;5.624;2022-12-29T03:25:56;9.10;99.90
53876;DHT22;39789;53.216;5.624;2022-12-29T03:28:27;9.10;99.90
53876;DHT22;39789;53.216;5.624;2022-12-29T03:30:55;9.00;99.90
53876;DHT22;39789;53.216;5.624;2022-12-29T03:33:24;9.00;99.90
53876;DHT22;39789;53.216;5.624;2022-12-29T03:35:54;9.00;99.90
53876;DHT22;39789;53.216;5.624;2022-12-29T03:38:42;9.40;99.90
53876;DHT22;39789;53.216;5.624;2022-12-29T03:41:12;8.90;99.90
53876;DHT22;39789;53.216;5.624;2022-12-29T03:43:40;8.80;99.90
53876;DHT22;39789;53.216;5.624;2022-12-29T03:46:05;8.80;99.90
53876;DHT22;39789;53.216;5.624;2022-12-29T03:48:31;8.50;99.90
53876;DHT22;39789;53.216;5.624;2022-12-29T03:50:58;8.70;99.90
53876;DHT22;39789;53.216;5.624;2022-12-29T03:53:26;8.70;99.90
53876;DHT22;39789;53.216;5.624;2022-12-29T03:55:52;8.60;99.90
53876;DHT22;39789;53.216;5.624;2022-12-29T03:58:18;8.60;99.90
53876;DHT22;39789;53.216;5.624;2022-12-29T04:00:43;8.60;99.90
53876;DHT22;39789;53.216;5.624;2022-12-29T04:03:09;8.50;99.90
53876;DHT22;39789;53.216;5.624;2022-12-29T04:05:35;8.60;99.90
53876;DHT22;39789;53.216;5.624;2022-12-29T04:08:03;8.60;99.90
53876;DHT22;39789;53.216;5.624;2022-12-29T04:10:28;8.60;99.90
53876;DHT22;39789;53.216;5.624;2022-12-29T04:12:54;8.60;99.90
53876;DHT22;39789;53.216;5.624;2022-12-29T04:15:19;8.60;99.90
53876;DHT22;39789;53.216;5.624;2022-12-29T04:17:45;9.60;99.90
53876;DHT22;39789;53.216;5.624;2022-12-29T04:20:11;8.60;99.90
53876;DHT22;39789;53.216;5.624;2022-12-29T04:23:05;8.90;99.90
53876;DHT22;39789;53.216;5.624;2022-12-29T04:25:32;8.50;99.90
53876;DHT22;39789;53.216;5.624;2022-12-29T04:27:57;8.50;99.90
53876;DHT22;39789;53.216;5.624;2022-12-29T04:30:23;8.50;99.90
53876;DHT22;39789;53.216;5.624;2022-12-29T04:32:49;8.50;99.90
53876;DHT22;39789;53.216;5.624;2022-12-29T04:35:15;8.40;99.90
53876;DHT22;39789;53.216;5.624;2022-12-29T04:37:40;8.40;99.90
53876;DHT22;39789;53.216;5.624;2022-12-29T04:40:07;8.40;99.90
53876;DHT22;39789;53.216;5.624;2022-12-29T04:42:33;8.50;99.90
53876;DHT22;39789;53.216;5.624;2022-12-29T04:44:59;8.50;99.90
53876;DHT22;39789;53.216;5.624;2022-12-29T04:47:24;8.50;99.90
53876;DHT22;39789;53.216;5.624;2022-12-29T04:49:50;8.50;99.90
53876;DHT22;39789;53.216;5.624;2022-12-29T04:52:16;8.50;99.90
53876;DHT22;39789;53.216;5.624;2022-12-29T04:54:41;8.40;99.90
53876;DHT22;39789;53.216;5.624;2022-12-29T04:57:07;8.50;99.90
53876;DHT22;39789;53.216;5.624;2022-12-29T04:59:32;8.50;99.90
53876;DHT22;39789;53.216;5.624;2022-12-29T05:01:58;8.50;99.90
53876;DHT22;39789;53.216;5.624;2022-12-29T05:04:23;8.60;99.90
53876;DHT22;39789;53.216;5.624;2022-12-29T05:06:49;8.60;99.90
53876;DHT22;39789;53.216;5.624;2022-12-29T05:09:15;8.70;99.90
53876;DHT22;39789;53.216;5.624;2022-12-29T05:11:40;8.70;99.90
53876;DHT22;39789;53.216;5.624;2022-12-29T05:14:06;8.70;99.90
53876;DHT22;39789;53.216;5.624;2022-12-29T05:16:31;8.70;99.90
53876;DHT22;39789;53.216;5.624;2022-12-29T05:18:57;8.70;99.90
53876;DHT22;39789;53.216;5.624;2022-12-29T05:21:23;8.70;99.90
53876;DHT22;39789;53.216;5.624;2022-12-29T05:23:49;9.40;99.90
53876;DHT22;39789;53.216;5.624;2022-12-29T05:26:14;8.70;99.90
53876;DHT22;39789;53.216;5.624;2022-12-29T05:28:40;8.70;99.90
53876;DHT22;39789;53.216;5.624;2022-12-29T05:31:05;8.70;99.90
53876;DHT22;39789;53.216;5.624;2022-12-29T05:33:31;8.70;99.90
53876;DHT22;39789;53.216;5.624;2022-12-29T05:35:56;8.70;99.90
53876;DHT22;39789;53.216;5.624;2022-12-29T05:38:24;8.70;99.90
53876;DHT22;39789;53.216;5.624;2022-12-29T05:40:49;8.70;99.90
53876;DHT22;39789;53.216;5.624;2022-12-29T05:43:15;8.70;99.90
53876;DHT22;39789;53.216;5.624;2022-12-29T05:45:40;9.30;99.90
53876;DHT22;39789;53.216;5.624;2022-12-29T05:48:06;8.70;99.90
53876;DHT22;39789;53.216;5.624;2022-12-29T05:50:32;8.70;99.90
53876;DHT22;39789;53.216;5.624;2022-12-29T05:52:57;8.50;99.90
53876;DHT22;39789;53.216;5.624;2022-12-29T05:55:23;8.70;99.90
53876;DHT22;39789;53.216;5.624;2022-12-29T05:57:48;8.70;99.90
53876;DHT22;39789;53.216;5.624;2022-12-29T06:00:14;8.70;99.90
53876;DHT22;39789;53.216;5.624;2022-12-29T06:02:41;8.70;99.90
53876;DHT22;39789;53.216;5.624;2022-12-29T06:05:07;8.50;99.90
53876;DHT22;39789;53.216;5.624;2022-12-29T06:07:32;8.70;99.90
53876;DHT22;39789;53.216;5.624;2022-12-29T06:09:58;8.70;99.90
53876;DHT22;39789;53.216;5.624;2022-12-29T06:12:23;8.70;99.90
53876;DHT22;39789;53.216;5.624;2022-12-29T06:14:49;8.70;99.90
53876;DHT22;39789;53.216;5.624;2022-12-29T06:17:15;8.50;99.90
53876;DHT22;39789;53.216;5.624;2022-12-29T06:19:40;8.30;99.90
53876;DHT22;39789;53.216;5.624;2022-12-29T06:22:06;8.50;99.90
53876;DHT22;39789;53.216;5.624;2022-12-29T06:24:32;8.50;99.90
53876;DHT22;39789;53.216;5.624;2022-12-29T06:26:58;8.50;99.90
53876;DHT22;39789;53.216;5.624;2022-12-29T06:29:24;8.40;99.90
53876;DHT22;39789;53.216;5.624;2022-12-29T06:31:49;8.40;99.90
53876;DHT22;39789;53.216;5.624;2022-12-29T06:34:16;8.30;99.90
53876;DHT22;39789;53.216;5.624;2022-12-29T06:36:45;8.40;99.90
53876;DHT22;39789;53.216;5.624;2022-12-29T06:39:14;8.40;99.90
53876;DHT22;39789;53.216;5.624;2022-12-29T06:41:40;8.40;99.90
53876;DHT22;39789;53.216;5.624;2022-12-29T06:44:08;8.40;99.90
53876;DHT22;39789;53.216;5.624;2022-12-29T06:46:34;8.40;99.90
53876;DHT22;39789;53.216;5.624;2022-12-29T06:49:17;8.40;99.90
53876;DHT22;39789;53.216;5.624;2022-12-29T06:51:42;8.40;99.90
53876;DHT22;39789;53.216;5.624;2022-12-29T06:54:08;8.40;99.90
53876;DHT22;39789;53.216;5.624;2022-12-29T06:56:33;8.40;99.90
53876;DHT22;39789;53.216;5.624;2022-12-29T06:58:59;8.50;99.90
53876;DHT22;39789;53.216;5.624;2022-12-29T07:01:27;8.50;99.90
53876;DHT22;39789;53.216;5.624;2022-12-29T07:03:53;8.50;99.90
53876;DHT22;39789;53.216;5.624;2022-12-29T07:06:18;8.50;99.90
53876;DHT22;39789;53.216;5.624;2022-12-29T07:08:44;8.90;99.90
53876;DHT22;39789;53.216;5.624;2022-12-29T07:11:10;8.60;99.90
53876;DHT22;39789;53.216;5.624;2022-12-29T07:13:36;8.60;99.90
53876;DHT22;39789;53.216;5.624;2022-12-29T07:16:06;8.60;99.90
53876;DHT22;39789;53.216;5.624;2022-12-29T07:18:32;8.60;99.90
53876;DHT22;39789;53.216;5.624;2022-12-29T07:20:58;8.60;99.90
53876;DHT22;39789;53.216;5.624;2022-12-29T07:23:23;8.60;99.90
53876;DHT22;39789;53.216;5.624;2022-12-29T07:25:49;8.60;99.90
53876;DHT22;39789;53.216;5.624;2022-12-29T07:28:15;8.70;99.90
53876;DHT22;39789;53.216;5.624;2022-12-29T07:30:40;8.70;99.90
53876;DHT22;39789;53.216;5.624;2022-12-29T07:33:06;8.70;99.90
53876;DHT22;39789;53.216;5.624;2022-12-29T07:35:33;8.60;99.90
53876;DHT22;39789;53.216;5.624;2022-12-29T07:37:59;8.60;99.90
53876;DHT22;39789;53.216;5.624;2022-12-29T07:40:25;8.60;99.90
53876;DHT22;39789;53.216;5.624;2022-12-29T07:42:50;8.60;99.90
53876;DHT22;39789;53.216;5.624;2022-12-29T07:45:16;8.60;99.90
53876;DHT22;39789;53.216;5.624;2022-12-29T07:47:41;8.60;99.90
53876;DHT22;39789;53.216;5.624;2022-12-29T07:50:07;8.40;99.90
53876;DHT22;39789;53.216;5.624;2022-12-29T07:52:33;8.60;99.90
53876;DHT22;39789;53.216;5.624;2022-12-29T07:54:58;8.60;99.90
53876;DHT22;39789;53.216;5.624;2022-12-29T07:57:25;8.60;99.90
53876;DHT22;39789;53.216;5.624;2022-12-29T07:59:50;9.60;99.90
53876;DHT22;39789;53.216;5.624;2022-12-29T08:02:16;8.60;99.90
53876;DHT22;39789;53.216;5.624;2022-12-29T08:04:42;8.60;99.90
53876;DHT22;39789;53.216;5.624;2022-12-29T08:07:07;8.60;99.90
53876;DHT22;39789;53.216;5.624;2022-12-29T08:09:33;8.60;99.90
53876;DHT22;39789;53.216;5.624;2022-12-29T08:11:58;8.60;99.90
53876;DHT22;39789;53.216;5.624;2022-12-29T08:14:24;8.60;99.90
53876;DHT22;39789;53.216;5.624;2022-12-29T08:16:49;8.70;99.90
53876;DHT22;39789;53.216;5.624;2022-12-29T08:19:15;8.70;99.90
53876;DHT22;39789;53.216;5.624;2022-12-29T08:21:40;8.70;99.90
53876;DHT22;39789;53.216;5.624;2022-12-29T08:24:08;8.70;99.90
53876;DHT22;39789;53.216;5.624;2022-12-29T08:26:33;8.70;99.90
53876;DHT22;39789;53.216;5.624;2022-12-29T08:28:59;8.70;99.90
53876;DHT22;39789;53.216;5.624;2022-12-29T08:31:25;8.70;99.90
53876;DHT22;39789;53.216;5.624;2022-12-29T08:33:50;8.70;99.90
53876;DHT22;39789;53.216;5.624;2022-12-29T08:36:16;8.70;99.90
53876;DHT22;39789;53.216;5.624;2022-12-29T08:38:42;8.60;99.90
53876;DHT22;39789;53.216;5.624;2022-12-29T08:41:08;8.50;99.90
53876;DHT22;39789;53.216;5.624;2022-12-29T08:43:33;8.50;99.90
53876;DHT22;39789;53.216;5.624;2022-12-29T08:45:59;8.50;99.90
53876;DHT22;39789;53.216;5.624;2022-12-29T08:48:25;8.50;99.90
53876;DHT22;39789;53.216;5.624;2022-12-29T08:50:52;8.60;99.90
53876;DHT22;39789;53.216;5.624;2022-12-29T08:53:18;8.60;99.90
53876;DHT22;39789;53.216;5.624;2022-12-29T08:55:54;8.60;99.90
53876;DHT22;39789;53.216;5.624;2022-12-29T08:58:20;8.70;99.90
53876;DHT22;39789;53.216;5.624;2022-12-29T09:00:53;8.70;99.90
53876;DHT22;39789;53.216;5.624;2022-12-29T09:03:19;8.80;99.90
53876;DHT22;39789;53.216;5.624;2022-12-29T09:05:51;8.80;99.90
53876;DHT22;39789;53.216;5.624;2022-12-29T09:08:17;8.70;99.90
53876;DHT22;39789;53.216;5.624;2022-12-29T09:10:43;8.80;99.90
53876;DHT22;39789;53.216;5.624;2022-12-29T09:13:10;8.80;99.90
53876;DHT22;39789;53.216;5.624;2022-12-29T09:15:36;8.80;99.90
53876;DHT22;39789;53.216;5.624;2022-12-29T09:18:01;8.80;99.90
53876;DHT22;39789;53.216;5.624;2022-12-29T09:20:27;9.30;99.90
53876;DHT22;39789;53.216;5.624;2022-12-29T09:22:52;8.80;99.90
53876;DHT22;39789;53.216;5.624;2022-12-29T09:25:19;8.80;99.90
53876;DHT22;39789;53.216;5.624;2022-12-29T09:27:45;8.80;99.90
53876;DHT22;39789;53.216;5.624;2022-12-29T09:30:13;8.50;99.90
53876;DHT22;39789;53.216;5.624;2022-12-29T09:32:40;8.80;99.90
53876;DHT22;39789;53.216;5.624;2022-12-29T09:35:05;8.50;99.90
53876;DHT22;39789;53.216;5.624;2022-12-29T09:37:31;8.80;99.90
53876;DHT22;39789;53.216;5.624;2022-12-29T09:39:57;8.80;99.90
53876;DHT22;39789;53.216;5.624;2022-12-29T09:42:45;8.70;99.90
53876;DHT22;39789;53.216;5.624;2022-12-29T09:45:21;8.70;99.90
53876;DHT22;39789;53.216;5.624;2022-12-29T09:47:50;8.70;99.90
53876;DHT22;39789;53.216;5.624;2022-12-29T09:50:31;8.70;99.90
53876;DHT22;39789;53.216;5.624;2022-12-29T09:55:39;8.80;99.90
53876;DHT22;39789;53.216;5.624;2022-12-29T09:58:14;8.80;99.90
53876;DHT22;39789;53.216;5.624;2022-12-29T10:03:17;8.90;99.90
53876;DHT22;39789;53.216;5.624;2022-12-29T10:08:57;8.90;99.90
53876;DHT22;39789;53.216;5.624;2022-12-29T10:25:16;8.90;99.90
53876;DHT22;39789;53.216;5.624;2022-12-29T10:27:43;8.90;99.90
53876;DHT22;39789;53.216;5.624;2022-12-29T10:30:13;8.90;99.90
53876;DHT22;39789;53.216;5.624;2022-12-29T10:32:51;8.90;99.90
53876;DHT22;39789;53.216;5.624;2022-12-29T10:35:25;8.90;99.90
53876;DHT22;39789;53.216;5.624;2022-12-29T10:38:04;9.00;99.90
53876;DHT22;39789;53.216;5.624;2022-12-29T10:40:42;9.00;99.90
53876;DHT22;39789;53.216;5.624;2022-12-29T10:43:24;9.00;99.90
53876;DHT22;39789;53.216;5.624;2022-12-29T10:45:53;9.00;99.90
53876;DHT22;39789;53.216;5.624;2022-12-29T10:48:22;9.00;99.90
53876;DHT22;39789;53.216;5.624;2022-12-29T10:50:50;9.10;99.90
53876;DHT22;39789;53.216;5.624;2022-12-29T10:53:26;9.10;99.90
53876;DHT22;39789;53.216;5.624;2022-12-29T10:55:53;9.10;99.90
53876;DHT22;39789;53.216;5.624;2022-12-29T10:58:20;9.10;99.90
53876;DHT22;39789;53.216;5.624;2022-12-29T11:00:52;9.20;99.90
53876;DHT22;39789;53.216;5.624;2022-12-29T11:03:42;9.20;99.90
53876;DHT22;39789;53.216;5.624;2022-12-29T11:06:21;9.20;99.90
53876;DHT22;39789;53.216;5.624;2022-12-29T11:09:25;9.10;99.90
53876;DHT22;39789;53.216;5.624;2022-12-29T11:11:52;9.00;99.90
53876;DHT22;39789;53.216;5.624;2022-12-29T11:14:21;9.00;99.90
53876;DHT22;39789;53.216;5.624;2022-12-29T11:16:59;8.90;99.90
53876;DHT22;39789;53.216;5.624;2022-12-29T11:19:28;8.90;99.90
53876;DHT22;39789;53.216;5.624;2022-12-29T11:22:22;8.90;99.90
53876;DHT22;39789;53.216;5.624;2022-12-29T11:24:50;10.00;99.90
53876;DHT22;39789;53.216;5.624;2022-12-29T11:27:19;8.90;99.90
53876;DHT22;39789;53.216;5.624;2022-12-29T11:29:48;8.90;99.90
53876;DHT22;39789;53.216;5.624;2022-12-29T11:32:26;8.90;99.90
53876;DHT22;39789;53.216;5.624;2022-12-29T11:34:51;8.90;99.90
53876;DHT22;39789;53.216;5.624;2022-12-29T11:37:19;8.90;99.90
53876;DHT22;39789;53.216;5.624;2022-12-29T11:40:02;8.90;99.90
53876;DHT22;39789;53.216;5.624;2022-12-29T11:42:59;8.90;99.90
53876;DHT22;39789;53.216;5.624;2022-12-29T11:45:32;8.90;99.90
53876;DHT22;39789;53.216;5.624;2022-12-29T11:50:28;8.90;99.90
53876;DHT22;39789;53.216;5.624;2022-12-29T11:53:03;8.90;99.90
53876;DHT22;39789;53.216;5.624;2022-12-29T11:55:30;8.90;99.90
53876;DHT22;39789;53.216;5.624;2022-12-29T11:57:59;8.90;99.90
53876;DHT22;39789;53.216;5.624;2022-12-29T12:00:28;8.90;99.90
53876;DHT22;39789;53.216;5.624;2022-12-29T12:03:20;8.90;99.90
53876;DHT22;39789;53.216;5.624;2022-12-29T12:05:54;8.90;99.90
53876;DHT22;39789;53.216;5.624;2022-12-29T12:12:03;8.90;99.90
53876;DHT22;39789;53.216;5.624;2022-12-29T12:14:45;9.00;99.90
53876;DHT22;39789;53.216;5.624;2022-12-29T12:17:17;9.00;99.90
53876;DHT22;39789;53.216;5.624;2022-12-29T12:19:53;9.00;99.90
53876;DHT22;39789;53.216;5.624;2022-12-29T12:22:36;9.00;99.90
53876;DHT22;39789;53.216;5.624;2022-12-29T12:25:11;9.00;99.90
53876;DHT22;39789;53.216;5.624;2022-12-29T12:27:47;9.00;99.90
53876;DHT22;39789;53.216;5.624;2022-12-29T12:30:19;9.00;99.90
53876;DHT22;39789;53.216;5.624;2022-12-29T12:33:03;9.60;99.90
53876;DHT22;39789;53.216;5.624;2022-12-29T12:35:42;9.00;99.90
53876;DHT22;39789;53.216;5.624;2022-12-29T12:38:32;9.00;99.90
53876;DHT22;39789;53.216;5.624;2022-12-29T12:41:20;9.00;99.90
53876;DHT22;39789;53.216;5.624;2022-12-29T12:44:01;9.00;99.90
53876;DHT22;39789;53.216;5.624;2022-12-29T12:46:40;9.00;99.90
53876;DHT22;39789;53.216;5.624;2022-12-29T12:55:10;9.00;99.90
53876;DHT22;39789;53.216;5.624;2022-12-29T13:09:23;9.00;99.90
53876;DHT22;39789;53.216;5.624;2022-12-29T13:12:12;9.00;99.90
53876;DHT22;39789;53.216;5.624;2022-12-29T13:17:53;9.00;99.90
53876;DHT22;39789;53.216;5.624;2022-12-29T13:20:31;9.00;99.90
53876;DHT22;39789;53.216;5.624;2022-12-29T13:23:14;9.00;99.90
53876;DHT22;39789;53.216;5.624;2022-12-29T13:25:50;9.00;99.90
53876;DHT22;39789;53.216;5.624;2022-12-29T13:31:12;8.90;99.90
53876;DHT22;39789;53.216;5.624;2022-12-29T13:33:49;8.90;99.90
53876;DHT22;39789;53.216;5.624;2022-12-29T13:38:46;8.90;99.90
53876;DHT22;39789;53.216;5.624;2022-12-29T13:44:59;8.90;99.90
53876;DHT22;39789;53.216;5.624;2022-12-29T13:47:42;8.90;99.90
53876;DHT22;39789;53.216;5.624;2022-12-29T13:50:15;8.90;99.90
53876;DHT22;39789;53.216;5.624;2022-12-29T13:52:49;8.90;99.90
53876;DHT22;39789;53.216;5.624;2022-12-29T13:55:35;8.90;99.90
53876;DHT22;39789;53.216;5.624;2022-12-29T14:06:15;8.90;99.90
53876;DHT22;39789;53.216;5.624;2022-12-29T14:08:42;8.90;99.90
53876;DHT22;39789;53.216;5.624;2022-12-29T14:14:49;8.80;99.90
53876;DHT22;39789;53.216;5.624;2022-12-29T14:17:23;8.70;99.90
53876;DHT22;39789;53.216;5.624;2022-12-29T14:19:52;9.50;99.90
53876;DHT22;39789;53.216;5.624;2022-12-29T14:22:27;8.60;99.90
53876;DHT22;39789;53.216;5.624;2022-12-29T14:24:53;8.50;99.90
53876;DHT22;39789;53.216;5.624;2022-12-29T14:29:51;8.50;99.90
53876;DHT22;39789;53.216;5.624;2022-12-29T14:34:52;8.50;99.90
53876;DHT22;39789;53.216;5.624;2022-12-29T14:37:23;8.50;99.90
53876;DHT22;39789;53.216;5.624;2022-12-29T14:39:49;8.50;99.90
53876;DHT22;39789;53.216;5.624;2022-12-29T14:42:29;9.10;99.90
53876;DHT22;39789;53.216;5.624;2022-12-29T14:47:49;8.40;99.90
53876;DHT22;39789;53.216;5.624;2022-12-29T14:50:17;8.40;99.90
53876;DHT22;39789;53.216;5.624;2022-12-29T14:52:57;8.40;99.90
53876;DHT22;39789;53.216;5.624;2022-12-29T14:55:40;8.40;99.90
53876;DHT22;39789;53.216;5.624;2022-12-29T14:58:20;8.30;99.90
53876;DHT22;39789;53.216;5.624;2022-12-29T15:00:46;8.40;99.90
53876;DHT22;39789;53.216;5.624;2022-12-29T15:09:36;8.40;99.90
53876;DHT22;39789;53.216;5.624;2022-12-29T15:12:20;8.40;99.90
53876;DHT22;39789;53.216;5.624;2022-12-29T15:14:57;8.40;99.90
53876;DHT22;39789;53.216;5.624;2022-12-29T15:19:52;8.40;99.90
53876;DHT22;39789;53.216;5.624;2022-12-29T15:22:17;8.40;99.90
53876;DHT22;39789;53.216;5.624;2022-12-29T15:24:43;8.30;99.90
53876;DHT22;39789;53.216;5.624;2022-12-29T15:30:30;8.40;99.90
53876;DHT22;39789;53.216;5.624;2022-12-29T15:32:56;8.40;99.90
53876;DHT22;39789;53.216;5.624;2022-12-29T15:37:57;8.40;99.90
53876;DHT22;39789;53.216;5.624;2022-12-29T15:40:26;8.40;99.90
53876;DHT22;39789;53.216;5.624;2022-12-29T15:45:43;8.40;99.90
53876;DHT22;39789;53.216;5.624;2022-12-29T15:51:50;8.40;99.90
53876;DHT22;39789;53.216;5.624;2022-12-29T15:54:18;8.30;99.90
53876;DHT22;39789;53.216;5.624;2022-12-29T15:56:45;8.30;99.90
53876;DHT22;39789;53.216;5.624;2022-12-29T15:59:26;8.20;99.90
53876;DHT22;39789;53.216;5.624;2022-12-29T16:01:57;8.10;99.90
53876;DHT22;39789;53.216;5.624;2022-12-29T16:04:27;8.10;99.90
53876;DHT22;39789;53.216;5.624;2022-12-29T16:07:02;8.00;99.90
53876;DHT22;39789;53.216;5.624;2022-12-29T16:09:41;8.00;99.90
53876;DHT22;39789;53.216;5.624;2022-12-29T16:12:19;8.00;99.90
53876;DHT22;39789;53.216;5.624;2022-12-29T16:14:48;8.00;99.90
53876;DHT22;39789;53.216;5.624;2022-12-29T16:17:21;8.00;99.90
53876;DHT22;39789;53.216;5.624;2022-12-29T16:19:56;8.00;99.90
53876;DHT22;39789;53.216;5.624;2022-12-29T16:22:27;8.00;99.90
53876;DHT22;39789;53.216;5.624;2022-12-29T16:25:00;8.00;99.90
53876;DHT22;39789;53.216;5.624;2022-12-29T16:27:41;8.00;99.90
53876;DHT22;39789;53.216;5.624;2022-12-29T16:30:30;8.00;99.90
53876;DHT22;39789;53.216;5.624;2022-12-29T16:32:58;7.90;99.90
53876;DHT22;39789;53.216;5.624;2022-12-29T16:35:25;7.90;99.90
53876;DHT22;39789;53.216;5.624;2022-12-29T16:40:38;8.00;99.90
53876;DHT22;39789;53.216;5.624;2022-12-29T16:43:04;8.00;99.90
53876;DHT22;39789;53.216;5.624;2022-12-29T16:48:19;8.00;99.90
53876;DHT22;39789;53.216;5.624;2022-12-29T16:50:45;8.00;99.90
53876;DHT22;39789;53.216;5.624;2022-12-29T16:56:31;8.00;99.90
53876;DHT22;39789;53.216;5.624;2022-12-29T16:59:07;8.00;99.90
53876;DHT22;39789;53.216;5.624;2022-12-29T17:01:37;8.00;99.90
53876;DHT22;39789;53.216;5.624;2022-12-29T17:04:09;8.00;99.90
53876;DHT22;39789;53.216;5.624;2022-12-29T17:06:35;8.00;99.90
53876;DHT22;39789;53.216;5.624;2022-12-29T17:09:01;7.90;99.90
53876;DHT22;39789;53.216;5.624;2022-12-29T17:11:32;7.90;99.90
53876;DHT22;39789;53.216;5.624;2022-12-29T17:14:21;8.00;99.90
53876;DHT22;39789;53.216;5.624;2022-12-29T17:16:48;8.00;99.90
53876;DHT22;39789;53.216;5.624;2022-12-29T17:19:19;8.00;99.90
53876;DHT22;39789;53.216;5.624;2022-12-29T17:21:45;8.00;99.90
53876;DHT22;39789;53.216;5.624;2022-12-29T17:24:18;8.00;99.90
53876;DHT22;39789;53.216;5.624;2022-12-29T17:26:47;8.00;99.90
53876;DHT22;39789;53.216;5.624;2022-12-29T17:31:53;8.00;99.90
53876;DHT22;39789;53.216;5.624;2022-12-29T17:34:18;8.00;99.90
53876;DHT22;39789;53.216;5.624;2022-12-29T17:36:44;7.90;99.90
53876;DHT22;39789;53.216;5.624;2022-12-29T17:39:10;7.90;99.90
53876;DHT22;39789;53.216;5.624;2022-12-29T17:41:36;7.90;99.90
53876;DHT22;39789;53.216;5.624;2022-12-29T17:44:03;7.70;99.90
53876;DHT22;39789;53.216;5.624;2022-12-29T17:46:29;8.30;99.90
53876;DHT22;39789;53.216;5.624;2022-12-29T17:48:55;7.90;99.90
53876;DHT22;39789;53.216;5.624;2022-12-29T17:51:21;7.90;99.90
53876;DHT22;39789;53.216;5.624;2022-12-29T17:53:47;7.90;99.90
53876;DHT22;39789;53.216;5.624;2022-12-29T17:56:14;7.50;99.90
53876;DHT22;39789;53.216;5.624;2022-12-29T17:58:40;8.30;99.90
53876;DHT22;39789;53.216;5.624;2022-12-29T18:01:06;7.80;99.90
53876;DHT22;39789;53.216;5.624;2022-12-29T18:03:38;8.00;99.90
53876;DHT22;39789;53.216;5.624;2022-12-29T18:06:06;8.00;99.90
53876;DHT22;39789;53.216;5.624;2022-12-29T18:08:36;8.00;99.90
53876;DHT22;39789;53.216;5.624;2022-12-29T18:11:04;7.90;99.90
53876;DHT22;39789;53.216;5.624;2022-12-29T18:13:31;8.50;99.90
53876;DHT22;39789;53.216;5.624;2022-12-29T18:15:57;7.80;99.90
53876;DHT22;39789;53.216;5.624;2022-12-29T18:18:25;7.80;99.90
53876;DHT22;39789;53.216;5.624;2022-12-29T18:20:55;7.80;99.90